sensor_id;sensor_type;location;lat;lon;timestamp;pressure;altitude;pressure_sealevel;temperature;humidity
77795;BME280;66985;45.778;3.090;2023-03-04T00:02:14;97633.05;;;18.63;14.92
77795;BME280;66985;45.778;3.090;2023-03-04T00:04:39;97633.30;;;18.79;14.86
77795;BME280;66985;45.778;3.090;2023-03-04T00:07:05;97631.57;;;18.54;14.98
77795;BME280;66985;45.778;3.090;2023-03-04T00:09:30;97631.76;;;18.59;15.00
77795;BME280;66985;45.778;3.090;2023-03-04T00:11:56;97630.21;;;18.52;14.90
77795;BME280;66985;45.778;3.090;2023-03-04T00:14:21;97634.15;;;18.42;14.97
77795;BME280;66985;45.778;3.090;2023-03-04T00:16:47;97631.92;;;18.88;14.77
77795;BME280;66985;45.778;3.090;2023-03-04T00:19:12;97634.86;;;18.35;15.13
77795;BME280;66985;45.778;3.090;2023-03-04T00:21:37;97635.23;;;18.17;15.03
77795;BME280;66985;45.778;3.090;2023-03-04T00:24:02;97632.60;;;18.67;14.91
77795;BME280;66985;45.778;3.090;2023-03-04T00:26:27;97629.03;;;18.40;14.98
77795;BME280;66985;45.778;3.090;2023-03-04T00:28:53;97630.96;;;18.12;15.11
77795;BME280;66985;45.778;3.090;2023-03-04T00:31:19;97627.19;;;18.31;14.98
77795;BME280;66985;45.778;3.090;2023-03-04T00:33:44;97628.11;;;18.64;14.80
77795;BME280;66985;45.778;3.090;2023-03-04T00:36:10;97628.91;;;18.00;15.23
77795;BME280;66985;45.778;3.090;2023-03-04T00:38:35;97627.95;;;18.50;14.90
77795;BME280;66985;45.778;3.090;2023-03-04T00:41:00;97629.01;;;18.75;14.85
77795;BME280;66985;45.778;3.090;2023-03-04T00:43:25;97632.70;;;18.05;15.14
77795;BME280;66985;45.778;3.090;2023-03-04T00:45:51;97630.30;;;18.06;15.10
77795;BME280;66985;45.778;3.090;2023-03-04T00:48:16;97628.10;;;18.16;14.97
77795;BME280;66985;45.778;3.090;2023-03-04T00:50:43;97626.37;;;18.26;14.90
77795;BME280;66985;45.778;3.090;2023-03-04T00:53:07;97630.31;;;18.05;15.00
77795;BME280;66985;45.778;3.090;2023-03-04T00:55:32;97631.09;;;17.93;15.00
77795;BME280;66985;45.778;3.090;2023-03-04T00:57:59;97626.02;;;18.56;14.90
77795;BME280;66985;45.778;3.090;2023-03-04T01:00:24;97628.59;;;18.24;15.04
77795;BME280;66985;45.778;3.090;2023-03-04T01:02:50;97626.96;;;18.21;15.02
77795;BME280;66985;45.778;3.090;2023-03-04T01:05:15;97625.64;;;17.96;14.97
77795;BME280;66985;45.778;3.090;2023-03-04T01:07:40;97619.36;;;18.02;14.93
77795;BME280;66985;45.778;3.090;2023-03-04T01:10:13;97621.59;;;18.15;14.98
77795;BME280;66985;45.778;3.090;2023-03-04T01:12:31;97615.61;;;18.35;14.84
77795;BME280;66985;45.778;3.090;2023-03-04T01:14:57;97618.42;;;17.59;15.20
77795;BME280;66985;45.778;3.090;2023-03-04T01:17:22;97615.30;;;18.19;14.94
77795;BME280;66985;45.778;3.090;2023-03-04T01:19:47;97613.94;;;17.77;15.10
77795;BME280;66985;45.778;3.090;2023-03-04T01:22:13;97610.12;;;18.13;14.90
77795;BME280;66985;45.778;3.090;2023-03-04T01:24:38;97607.16;;;18.41;14.73
77795;BME280;66985;45.778;3.090;2023-03-04T01:27:03;97605.59;;;18.20;14.91
77795;BME280;66985;45.778;3.090;2023-03-04T01:29:29;97605.84;;;17.76;15.07
77795;BME280;66985;45.778;3.090;2023-03-04T01:31:54;97606.22;;;17.96;15.11
77795;BME280;66985;45.778;3.090;2023-03-04T01:34:19;97599.05;;;18.39;14.83
77795;BME280;66985;45.778;3.090;2023-03-04T01:36:44;97602.59;;;17.71;14.96
77795;BME280;66985;45.778;3.090;2023-03-04T01:39:10;97600.85;;;17.91;14.91
77795;BME280;66985;45.778;3.090;2023-03-04T01:41:35;97597.49;;;18.30;14.80
77795;BME280;66985;45.778;3.090;2023-03-04T01:44:01;97598.62;;;18.28;15.06
77795;BME280;66985;45.778;3.090;2023-03-04T01:46:27;97595.75;;;18.41;14.87
77795;BME280;66985;45.778;3.090;2023-03-04T01:48:52;97595.00;;;18.35;14.75
77795;BME280;66985;45.778;3.090;2023-03-04T01:51:19;97596.25;;;18.00;14.94
77795;BME280;66985;45.778;3.090;2023-03-04T01:53:44;97597.71;;;17.84;15.03
77795;BME280;66985;45.778;3.090;2023-03-04T01:56:15;97591.98;;;18.37;14.91
77795;BME280;66985;45.778;3.090;2023-03-04T01:58:34;97590.55;;;18.32;14.85
77795;BME280;66985;45.778;3.090;2023-03-04T02:00:59;97589.94;;;17.98;14.85
77795;BME280;66985;45.778;3.090;2023-03-04T02:03:26;97591.29;;;17.50;15.10
77795;BME280;66985;45.778;3.090;2023-03-04T02:05:52;97587.31;;;18.15;14.87
77795;BME280;66985;45.778;3.090;2023-03-04T02:08:18;97586.73;;;18.60;14.57
77795;BME280;66985;45.778;3.090;2023-03-04T02:10:43;97587.67;;;18.19;15.01
77795;BME280;66985;45.778;3.090;2023-03-04T02:13:08;97588.70;;;18.04;14.94
77795;BME280;66985;45.778;3.090;2023-03-04T02:15:33;97583.51;;;18.64;14.59
77795;BME280;66985;45.778;3.090;2023-03-04T02:17:58;97585.87;;;18.02;14.88
77795;BME280;66985;45.778;3.090;2023-03-04T02:20:34;97581.95;;;18.18;14.72
77795;BME280;66985;45.778;3.090;2023-03-04T02:23:00;97583.68;;;18.51;14.65
77795;BME280;66985;45.778;3.090;2023-03-04T02:25:17;97587.42;;;17.76;14.93
77795;BME280;66985;45.778;3.090;2023-03-04T02:27:40;97580.71;;;18.76;14.49
77795;BME280;66985;45.778;3.090;2023-03-04T02:30:08;97582.30;;;17.76;14.95
77795;BME280;66985;45.778;3.090;2023-03-04T02:32:31;97581.56;;;18.34;14.68
77795;BME280;66985;45.778;3.090;2023-03-04T02:34:56;97583.00;;;18.27;14.88
77795;BME280;66985;45.778;3.090;2023-03-04T02:37:21;97580.44;;;18.31;14.73
77795;BME280;66985;45.778;3.090;2023-03-04T02:39:48;97582.16;;;17.92;14.89
77795;BME280;66985;45.778;3.090;2023-03-04T02:42:12;97582.49;;;17.64;15.57
77795;BME280;66985;45.778;3.090;2023-03-04T02:44:38;97583.70;;;18.13;14.78
77795;BME280;66985;45.778;3.090;2023-03-04T02:47:04;97580.26;;;18.38;14.69
77795;BME280;66985;45.778;3.090;2023-03-04T02:49:29;97577.49;;;18.19;14.65
77795;BME280;66985;45.778;3.090;2023-03-04T02:51:59;97575.07;;;18.35;14.71
77795;BME280;66985;45.778;3.090;2023-03-04T02:54:20;97574.49;;;18.57;14.53
77795;BME280;66985;45.778;3.090;2023-03-04T02:56:45;97574.75;;;18.09;14.83
77795;BME280;66985;45.778;3.090;2023-03-04T02:59:10;97571.44;;;18.45;14.62
77795;BME280;66985;45.778;3.090;2023-03-04T03:01:36;97567.74;;;18.21;14.69
77795;BME280;66985;45.778;3.090;2023-03-04T03:04:02;97563.95;;;18.19;14.83
77795;BME280;66985;45.778;3.090;2023-03-04T03:06:28;97560.77;;;18.09;14.84
77795;BME280;66985;45.778;3.090;2023-03-04T03:08:53;97559.53;;;18.08;14.80
77795;BME280;66985;45.778;3.090;2023-03-04T03:11:19;97561.61;;;18.58;14.51
77795;BME280;66985;45.778;3.090;2023-03-04T03:13:44;97559.77;;;18.63;14.51
77795;BME280;66985;45.778;3.090;2023-03-04T03:16:10;97558.85;;;18.45;14.62
77795;BME280;66985;45.778;3.090;2023-03-04T03:18:35;97557.80;;;18.17;14.69
77795;BME280;66985;45.778;3.090;2023-03-04T03:21:00;97557.69;;;18.22;14.80
77795;BME280;66985;45.778;3.090;2023-03-04T03:23:26;97558.46;;;18.66;14.54
77795;BME280;66985;45.778;3.090;2023-03-04T03:25:51;97560.89;;;18.57;14.62
77795;BME280;66985;45.778;3.090;2023-03-04T03:28:17;97558.96;;;18.40;14.73
77795;BME280;66985;45.778;3.090;2023-03-04T03:30:41;97561.13;;;18.77;14.46
77795;BME280;66985;45.778;3.090;2023-03-04T03:33:08;97558.91;;;18.25;14.77
77795;BME280;66985;45.778;3.090;2023-03-04T03:35:33;97557.56;;;18.79;14.52
77795;BME280;66985;45.778;3.090;2023-03-04T03:37:58;97558.43;;;18.28;14.83
77795;BME280;66985;45.778;3.090;2023-03-04T03:40:23;97558.25;;;18.83;14.50
77795;BME280;66985;45.778;3.090;2023-03-04T03:42:49;97556.49;;;18.77;14.65
77795;BME280;66985;45.778;3.090;2023-03-04T03:45:14;97557.01;;;19.06;14.48
77795;BME280;66985;45.778;3.090;2023-03-04T03:47:39;97554.68;;;19.08;14.45
77795;BME280;66985;45.778;3.090;2023-03-04T03:50:06;97551.94;;;18.99;14.41
77795;BME280;66985;45.778;3.090;2023-03-04T03:52:30;97551.13;;;18.96;14.50
77795;BME280;66985;45.778;3.090;2023-03-04T03:54:56;97551.11;;;19.09;14.52
77795;BME280;66985;45.778;3.090;2023-03-04T03:57:21;97548.45;;;19.61;14.20
77795;BME280;66985;45.778;3.090;2023-03-04T03:59:46;97547.16;;;19.57;14.21
77795;BME280;66985;45.778;3.090;2023-03-04T04:02:12;97543.39;;;19.43;14.29
77795;BME280;66985;45.778;3.090;2023-03-04T04:04:37;97546.27;;;19.37;14.34
77795;BME280;66985;45.778;3.090;2023-03-04T04:07:03;97546.60;;;19.47;14.17
77795;BME280;66985;45.778;3.090;2023-03-04T04:09:28;97546.24;;;19.30;14.23
77795;BME280;66985;45.778;3.090;2023-03-04T04:11:54;97545.14;;;19.36;14.32
77795;BME280;66985;45.778;3.090;2023-03-04T04:14:19;97547.94;;;19.93;14.10
77795;BME280;66985;45.778;3.090;2023-03-04T04:16:45;97548.50;;;19.78;14.24
77795;BME280;66985;45.778;3.090;2023-03-04T04:19:15;97552.12;;;19.31;14.42
77795;BME280;66985;45.778;3.090;2023-03-04T04:21:36;97552.71;;;19.78;14.18
77795;BME280;66985;45.778;3.090;2023-03-04T04:24:01;97550.75;;;19.93;14.12
77795;BME280;66985;45.778;3.090;2023-03-04T04:26:27;97553.07;;;19.40;14.31
77795;BME280;66985;45.778;3.090;2023-03-04T04:28:53;97556.05;;;19.50;14.35
77795;BME280;66985;45.778;3.090;2023-03-04T04:31:18;97553.38;;;19.82;14.28
77795;BME280;66985;45.778;3.090;2023-03-04T04:33:43;97553.25;;;19.44;14.37
77795;BME280;66985;45.778;3.090;2023-03-04T04:36:12;97554.92;;;19.74;14.16
77795;BME280;66985;45.778;3.090;2023-03-04T04:38:34;97553.62;;;19.68;14.24
77795;BME280;66985;45.778;3.090;2023-03-04T04:41:00;97556.74;;;19.86;14.14
77795;BME280;66985;45.778;3.090;2023-03-04T04:43:25;97560.09;;;19.53;14.30
77795;BME280;66985;45.778;3.090;2023-03-04T04:45:51;97558.22;;;19.50;14.29
77795;BME280;66985;45.778;3.090;2023-03-04T04:48:16;97559.36;;;19.33;14.07
77795;BME280;66985;45.778;3.090;2023-03-04T04:50:42;97561.63;;;19.85;14.16
77795;BME280;66985;45.778;3.090;2023-03-04T04:53:09;97562.04;;;19.39;14.48
77795;BME280;66985;45.778;3.090;2023-03-04T04:55:33;97565.68;;;19.80;14.12
77795;BME280;66985;45.778;3.090;2023-03-04T04:57:59;97565.16;;;19.50;14.19
77795;BME280;66985;45.778;3.090;2023-03-04T05:00:24;97564.36;;;20.06;13.99
77795;BME280;66985;45.778;3.090;2023-03-04T05:02:50;97564.74;;;20.05;14.04
77795;BME280;66985;45.778;3.090;2023-03-04T05:05:15;97566.48;;;19.58;14.15
77795;BME280;66985;45.778;3.090;2023-03-04T05:07:41;97565.07;;;20.00;14.05
77795;BME280;66985;45.778;3.090;2023-03-04T05:10:12;97562.95;;;19.93;14.02
77795;BME280;66985;45.778;3.090;2023-03-04T05:12:32;97564.91;;;19.89;14.01
77795;BME280;66985;45.778;3.090;2023-03-04T05:14:57;97565.64;;;20.18;13.81
77795;BME280;66985;45.778;3.090;2023-03-04T05:17:23;97565.39;;;20.03;13.87
77795;BME280;66985;45.778;3.090;2023-03-04T05:19:48;97564.53;;;19.72;14.07
77795;BME280;66985;45.778;3.090;2023-03-04T05:22:13;97565.32;;;19.59;14.19
77795;BME280;66985;45.778;3.090;2023-03-04T05:24:38;97567.36;;;20.00;13.94
77795;BME280;66985;45.778;3.090;2023-03-04T05:27:05;97571.22;;;20.24;14.16
77795;BME280;66985;45.778;3.090;2023-03-04T05:29:29;97569.15;;;20.02;13.99
77795;BME280;66985;45.778;3.090;2023-03-04T05:31:55;97567.44;;;20.00;14.09
77795;BME280;66985;45.778;3.090;2023-03-04T05:34:20;97568.46;;;19.40;14.36
77795;BME280;66985;45.778;3.090;2023-03-04T05:36:46;97569.49;;;19.85;14.13
77795;BME280;66985;45.778;3.090;2023-03-04T05:39:11;97569.44;;;20.51;13.81
77795;BME280;66985;45.778;3.090;2023-03-04T05:41:37;97569.48;;;20.17;13.97
77795;BME280;66985;45.778;3.090;2023-03-04T05:44:02;97569.82;;;20.16;13.97
77795;BME280;66985;45.778;3.090;2023-03-04T05:46:27;97570.39;;;20.49;13.77
77795;BME280;66985;45.778;3.090;2023-03-04T05:48:53;97573.10;;;20.21;13.88
77795;BME280;66985;45.778;3.090;2023-03-04T05:51:18;97575.08;;;20.03;13.93
77795;BME280;66985;45.778;3.090;2023-03-04T05:53:44;97577.03;;;20.64;13.78
77795;BME280;66985;45.778;3.090;2023-03-04T05:56:10;97575.02;;;19.71;14.25
77795;BME280;66985;45.778;3.090;2023-03-04T05:58:35;97579.08;;;20.31;14.05
77795;BME280;66985;45.778;3.090;2023-03-04T06:01:00;97580.61;;;20.17;14.08
77795;BME280;66985;45.778;3.090;2023-03-04T06:03:26;97580.68;;;19.98;14.37
77795;BME280;66985;45.778;3.090;2023-03-04T06:05:52;97582.08;;;20.11;14.29
77795;BME280;66985;45.778;3.090;2023-03-04T06:08:17;97583.23;;;20.13;14.49
77795;BME280;66985;45.778;3.090;2023-03-04T06:10:42;97584.95;;;19.93;14.65
77795;BME280;66985;45.778;3.090;2023-03-04T06:13:08;97586.76;;;19.76;14.69
77795;BME280;66985;45.778;3.090;2023-03-04T06:15:33;97586.52;;;20.07;14.77
77795;BME280;66985;45.778;3.090;2023-03-04T06:17:58;97586.05;;;20.40;14.47
77795;BME280;66985;45.778;3.090;2023-03-04T06:20:23;97591.35;;;20.18;14.67
77795;BME280;66985;45.778;3.090;2023-03-04T06:22:49;97590.77;;;20.15;14.51
77795;BME280;66985;45.778;3.090;2023-03-04T06:25:14;97592.36;;;20.16;14.66
77795;BME280;66985;45.778;3.090;2023-03-04T06:27:40;97594.51;;;19.90;14.71
77795;BME280;66985;45.778;3.090;2023-03-04T06:30:07;97592.32;;;19.69;14.77
77795;BME280;66985;45.778;3.090;2023-03-04T06:32:31;97594.94;;;19.93;14.66
77795;BME280;66985;45.778;3.090;2023-03-04T06:34:56;97596.16;;;20.39;14.45
77795;BME280;66985;45.778;3.090;2023-03-04T06:37:21;97598.86;;;19.63;14.80
77795;BME280;66985;45.778;3.090;2023-03-04T06:39:46;97601.70;;;19.65;14.84
77795;BME280;66985;45.778;3.090;2023-03-04T06:42:12;97603.26;;;20.17;14.49
77795;BME280;66985;45.778;3.090;2023-03-04T06:44:37;97604.96;;;19.88;14.52
77795;BME280;66985;45.778;3.090;2023-03-04T06:47:02;97605.62;;;19.63;14.60
77795;BME280;66985;45.778;3.090;2023-03-04T06:49:27;97607.73;;;19.93;14.56
77795;BME280;66985;45.778;3.090;2023-03-04T06:51:53;97609.20;;;19.47;14.72
77795;BME280;66985;45.778;3.090;2023-03-04T06:54:18;97615.02;;;19.18;15.04
77795;BME280;66985;45.778;3.090;2023-03-04T06:56:44;97624.14;;;12.31;17.18
77795;BME280;66985;45.778;3.090;2023-03-04T06:59:10;97630.56;;;10.53;18.99
77795;BME280;66985;45.778;3.090;2023-03-04T07:01:35;97632.51;;;12.26;18.39
77795;BME280;66985;45.778;3.090;2023-03-04T07:04:00;97633.11;;;13.91;17.34
77795;BME280;66985;45.778;3.090;2023-03-04T07:06:27;97638.59;;;12.98;18.12
77795;BME280;66985;45.778;3.090;2023-03-04T07:08:52;97643.30;;;15.89;16.27
77795;BME280;66985;45.778;3.090;2023-03-04T07:11:18;97642.43;;;17.15;15.19
77795;BME280;66985;45.778;3.090;2023-03-04T07:13:43;97639.71;;;17.58;14.87
77795;BME280;66985;45.778;3.090;2023-03-04T07:16:10;97646.34;;;18.54;14.16
77795;BME280;66985;45.778;3.090;2023-03-04T07:18:34;97645.96;;;18.78;13.97
77795;BME280;66985;45.778;3.090;2023-03-04T07:21:00;97649.48;;;19.23;13.79
77795;BME280;66985;45.778;3.090;2023-03-04T07:23:25;97653.10;;;19.94;13.71
77795;BME280;66985;45.778;3.090;2023-03-04T07:25:50;97654.98;;;19.88;13.98
77795;BME280;66985;45.778;3.090;2023-03-04T07:28:16;97656.29;;;19.83;14.00
77795;BME280;66985;45.778;3.090;2023-03-04T07:30:41;97657.31;;;20.63;13.61
77795;BME280;66985;45.778;3.090;2023-03-04T07:33:07;97661.35;;;19.90;13.98
77795;BME280;66985;45.778;3.090;2023-03-04T07:35:32;97660.16;;;19.54;14.17
77795;BME280;66985;45.778;3.090;2023-03-04T07:37:57;97659.18;;;19.23;14.40
77795;BME280;66985;45.778;3.090;2023-03-04T07:40:23;97663.55;;;19.87;14.05
77795;BME280;66985;45.778;3.090;2023-03-04T07:42:49;97665.25;;;19.97;13.97
77795;BME280;66985;45.778;3.090;2023-03-04T07:45:14;97665.94;;;19.92;14.10
77795;BME280;66985;45.778;3.090;2023-03-04T07:47:39;97667.16;;;19.54;14.35
77795;BME280;66985;45.778;3.090;2023-03-04T07:50:06;97668.85;;;20.13;14.05
77795;BME280;66985;45.778;3.090;2023-03-04T07:52:31;97673.40;;;19.85;14.20
77795;BME280;66985;45.778;3.090;2023-03-04T07:54:57;97674.73;;;20.08;14.10
77795;BME280;66985;45.778;3.090;2023-03-04T07:57:22;97674.84;;;20.13;13.87
77795;BME280;66985;45.778;3.090;2023-03-04T07:59:47;97679.12;;;20.04;13.91
77795;BME280;66985;45.778;3.090;2023-03-04T08:02:13;97681.46;;;19.79;14.05
77795;BME280;66985;45.778;3.090;2023-03-04T08:04:39;97680.83;;;20.48;13.74
77795;BME280;66985;45.778;3.090;2023-03-04T08:07:04;97684.20;;;20.01;14.00
77795;BME280;66985;45.778;3.090;2023-03-04T08:09:30;97685.87;;;20.59;13.74
77795;BME280;66985;45.778;3.090;2023-03-04T08:11:55;97688.05;;;20.45;13.78
77795;BME280;66985;45.778;3.090;2023-03-04T08:14:21;97690.79;;;20.41;13.76
77795;BME280;66985;45.778;3.090;2023-03-04T08:16:46;97691.05;;;20.26;13.89
77795;BME280;66985;45.778;3.090;2023-03-04T08:19:12;97692.36;;;20.24;13.83
77795;BME280;66985;45.778;3.090;2023-03-04T08:21:37;97692.99;;;20.68;13.62
77795;BME280;66985;45.778;3.090;2023-03-04T08:24:03;97689.70;;;20.67;13.55
77795;BME280;66985;45.778;3.090;2023-03-04T08:26:31;97689.56;;;20.65;13.60
77795;BME280;66985;45.778;3.090;2023-03-04T08:28:55;97690.86;;;21.21;13.42
77795;BME280;66985;45.778;3.090;2023-03-04T08:31:20;97692.04;;;20.38;13.70
77795;BME280;66985;45.778;3.090;2023-03-04T08:33:45;97691.28;;;20.11;13.89
77795;BME280;66985;45.778;3.090;2023-03-04T08:36:11;97690.18;;;20.95;13.46
77795;BME280;66985;45.778;3.090;2023-03-04T08:38:36;97691.44;;;20.59;13.68
77795;BME280;66985;45.778;3.090;2023-03-04T08:41:06;97691.22;;;20.63;13.63
77795;BME280;66985;45.778;3.090;2023-03-04T08:43:26;97691.76;;;20.74;13.61
77795;BME280;66985;45.778;3.090;2023-03-04T08:45:53;97690.30;;;21.01;13.55
77795;BME280;66985;45.778;3.090;2023-03-04T08:48:17;97689.34;;;20.68;13.64
77795;BME280;66985;45.778;3.090;2023-03-04T08:50:42;97691.51;;;21.13;13.52
77795;BME280;66985;45.778;3.090;2023-03-04T08:53:07;97688.08;;;20.62;13.59
77795;BME280;66985;45.778;3.090;2023-03-04T08:55:33;97690.01;;;20.78;13.50
77795;BME280;66985;45.778;3.090;2023-03-04T08:57:58;97691.48;;;20.83;13.54
77795;BME280;66985;45.778;3.090;2023-03-04T09:00:23;97691.26;;;20.86;13.58
77795;BME280;66985;45.778;3.090;2023-03-04T09:02:49;97691.56;;;20.96;13.40
77795;BME280;66985;45.778;3.090;2023-03-04T09:05:14;97692.01;;;20.40;13.80
77795;BME280;66985;45.778;3.090;2023-03-04T09:07:39;97690.59;;;20.52;13.68
77795;BME280;66985;45.778;3.090;2023-03-04T09:10:06;97692.12;;;20.34;13.78
77795;BME280;66985;45.778;3.090;2023-03-04T09:12:30;97693.28;;;20.02;13.95
77795;BME280;66985;45.778;3.090;2023-03-04T09:14:56;97694.19;;;20.17;13.90
77795;BME280;66985;45.778;3.090;2023-03-04T09:17:21;97692.27;;;20.18;13.84
77795;BME280;66985;45.778;3.090;2023-03-04T09:19:47;97689.81;;;20.75;13.80
77795;BME280;66985;45.778;3.090;2023-03-04T09:22:12;97690.52;;;20.29;13.90
77795;BME280;66985;45.778;3.090;2023-03-04T09:24:38;97689.29;;;20.73;13.70
77795;BME280;66985;45.778;3.090;2023-03-04T09:27:03;97689.79;;;20.25;13.77
77795;BME280;66985;45.778;3.090;2023-03-04T09:29:28;97685.86;;;20.55;13.76
77795;BME280;66985;45.778;3.090;2023-03-04T09:31:54;97687.93;;;20.37;13.90
77795;BME280;66985;45.778;3.090;2023-03-04T09:34:19;97686.25;;;20.06;13.95
77795;BME280;66985;45.778;3.090;2023-03-04T09:36:45;97688.63;;;20.48;13.85
77795;BME280;66985;45.778;3.090;2023-03-04T09:39:10;97689.40;;;20.16;13.89
77795;BME280;66985;45.778;3.090;2023-03-04T09:41:38;97690.03;;;20.27;13.84
77795;BME280;66985;45.778;3.090;2023-03-04T09:44:03;97689.55;;;20.20;13.97
77795;BME280;66985;45.778;3.090;2023-03-04T09:46:31;97689.84;;;19.72;14.20
77795;BME280;66985;45.778;3.090;2023-03-04T09:48:54;97689.26;;;20.07;14.06
77795;BME280;66985;45.778;3.090;2023-03-04T09:51:21;97688.49;;;20.06;14.08
77795;BME280;66985;45.778;3.090;2023-03-04T09:53:51;97687.62;;;19.73;14.21
77795;BME280;66985;45.778;3.090;2023-03-04T09:56:10;97687.29;;;20.13;14.09
77795;BME280;66985;45.778;3.090;2023-03-04T09:58:43;97687.43;;;19.85;14.11
77795;BME280;66985;45.778;3.090;2023-03-04T10:01:02;97689.32;;;20.38;13.97
77795;BME280;66985;45.778;3.090;2023-03-04T10:03:33;97686.54;;;20.20;13.96
77795;BME280;66985;45.778;3.090;2023-03-04T10:05:54;97689.51;;;20.06;14.01
77795;BME280;66985;45.778;3.090;2023-03-04T10:08:32;97689.10;;;20.25;13.96
77795;BME280;66985;45.778;3.090;2023-03-04T10:10:44;97690.17;;;20.03;14.25
77795;BME280;66985;45.778;3.090;2023-03-04T10:13:15;97692.19;;;19.58;14.34
77795;BME280;66985;45.778;3.090;2023-03-04T10:15:36;97690.56;;;20.16;13.95
77795;BME280;66985;45.778;3.090;2023-03-04T10:18:04;97692.88;;;19.79;14.31
77795;BME280;66985;45.778;3.090;2023-03-04T10:20:26;97693.25;;;19.83;14.21
77795;BME280;66985;45.778;3.090;2023-03-04T10:22:51;97691.25;;;19.34;14.32
77795;BME280;66985;45.778;3.090;2023-03-04T10:25:17;97688.50;;;19.24;14.50
77795;BME280;66985;45.778;3.090;2023-03-04T10:27:41;97689.23;;;19.40;14.49
77795;BME280;66985;45.778;3.090;2023-03-04T10:30:13;97687.91;;;19.46;14.46
77795;BME280;66985;45.778;3.090;2023-03-04T10:32:31;97686.14;;;19.58;14.38
77795;BME280;66985;45.778;3.090;2023-03-04T10:34:57;97689.86;;;19.84;14.23
77795;BME280;66985;45.778;3.090;2023-03-04T10:37:22;97691.12;;;20.11;14.20
77795;BME280;66985;45.778;3.090;2023-03-04T10:39:49;97691.16;;;19.94;14.18
77795;BME280;66985;45.778;3.090;2023-03-04T10:42:28;97688.58;;;20.07;14.28
77795;BME280;66985;45.778;3.090;2023-03-04T10:44:41;97687.58;;;20.11;14.16
77795;BME280;66985;45.778;3.090;2023-03-04T10:47:08;97689.56;;;20.16;14.18
77795;BME280;66985;45.778;3.090;2023-03-04T10:49:29;97689.65;;;19.97;14.25
77795;BME280;66985;45.778;3.090;2023-03-04T10:52:01;97687.74;;;19.15;14.60
77795;BME280;66985;45.778;3.090;2023-03-04T10:54:24;97686.72;;;19.75;14.40
77795;BME280;66985;45.778;3.090;2023-03-04T10:56:54;97689.73;;;19.31;14.72
77795;BME280;66985;45.778;3.090;2023-03-04T10:59:32;97686.11;;;19.82;14.37
77795;BME280;66985;45.778;3.090;2023-03-04T11:01:37;97684.52;;;19.28;14.63
77795;BME280;66985;45.778;3.090;2023-03-04T11:04:16;97682.79;;;19.12;14.86
77795;BME280;66985;45.778;3.090;2023-03-04T11:06:28;97686.57;;;19.27;14.70
77795;BME280;66985;45.778;3.090;2023-03-04T11:08:55;97685.57;;;18.92;14.77
77795;BME280;66985;45.778;3.090;2023-03-04T11:11:24;97682.08;;;19.16;14.77
77795;BME280;66985;45.778;3.090;2023-03-04T11:13:51;97681.33;;;19.02;14.64
77795;BME280;66985;45.778;3.090;2023-03-04T11:16:24;97681.90;;;18.81;14.74
77795;BME280;66985;45.778;3.090;2023-03-04T11:18:40;97680.42;;;19.33;14.76
77795;BME280;66985;45.778;3.090;2023-03-04T11:21:01;97681.14;;;19.24;14.67
77795;BME280;66985;45.778;3.090;2023-03-04T11:23:32;97677.09;;;19.51;14.47
77795;BME280;66985;45.778;3.090;2023-03-04T11:25:56;97671.67;;;19.48;14.40
77795;BME280;66985;45.778;3.090;2023-03-04T11:28:21;97670.59;;;19.73;14.34
77795;BME280;66985;45.778;3.090;2023-03-04T11:30:45;97667.81;;;19.34;14.57
77795;BME280;66985;45.778;3.090;2023-03-04T11:33:14;97663.46;;;19.37;14.43
77795;BME280;66985;45.778;3.090;2023-03-04T11:35:38;97664.29;;;19.73;14.38
77795;BME280;66985;45.778;3.090;2023-03-04T11:38:05;97659.00;;;19.36;14.47
77795;BME280;66985;45.778;3.090;2023-03-04T11:40:29;97655.09;;;18.96;14.74
77795;BME280;66985;45.778;3.090;2023-03-04T11:42:53;97651.54;;;19.52;14.67
77795;BME280;66985;45.778;3.090;2023-03-04T11:45:16;97649.56;;;19.40;14.50
77795;BME280;66985;45.778;3.090;2023-03-04T11:47:47;97648.06;;;19.74;14.42
77795;BME280;66985;45.778;3.090;2023-03-04T11:50:18;97643.80;;;20.02;14.30
77795;BME280;66985;45.778;3.090;2023-03-04T11:52:41;97641.31;;;19.84;14.35
77795;BME280;66985;45.778;3.090;2023-03-04T11:55:10;97641.28;;;19.00;14.86
77795;BME280;66985;45.778;3.090;2023-03-04T11:57:29;97638.55;;;18.96;14.77
77795;BME280;66985;45.778;3.090;2023-03-04T11:59:58;97636.95;;;18.73;14.86
77795;BME280;66985;45.778;3.090;2023-03-04T12:02:15;97634.29;;;19.20;14.71
77795;BME280;66985;45.778;3.090;2023-03-04T12:04:48;97632.39;;;19.50;14.60
77795;BME280;66985;45.778;3.090;2023-03-04T12:07:11;97626.30;;;19.35;14.77
77795;BME280;66985;45.778;3.090;2023-03-04T12:09:39;97623.46;;;19.45;14.62
77795;BME280;66985;45.778;3.090;2023-03-04T12:12:02;97620.48;;;19.55;14.43
77795;BME280;66985;45.778;3.090;2023-03-04T12:14:24;97617.57;;;19.25;14.78
77795;BME280;66985;45.778;3.090;2023-03-04T12:16:55;97614.79;;;19.18;14.72
77795;BME280;66985;45.778;3.090;2023-03-04T12:19:23;97614.26;;;19.63;14.57
77795;BME280;66985;45.778;3.090;2023-03-04T12:21:53;97609.37;;;19.85;14.41
77795;BME280;66985;45.778;3.090;2023-03-04T12:24:17;97607.59;;;20.24;14.27
77795;BME280;66985;45.778;3.090;2023-03-04T12:26:32;97605.87;;;19.55;14.47
77795;BME280;66985;45.778;3.090;2023-03-04T12:28:56;97606.32;;;19.88;14.30
77795;BME280;66985;45.778;3.090;2023-03-04T12:31:28;97604.28;;;20.21;14.19
77795;BME280;66985;45.778;3.090;2023-03-04T12:33:53;97597.75;;;19.86;14.40
77795;BME280;66985;45.778;3.090;2023-03-04T12:36:14;97595.72;;;19.47;14.66
77795;BME280;66985;45.778;3.090;2023-03-04T12:38:46;97594.32;;;19.53;14.60
77795;BME280;66985;45.778;3.090;2023-03-04T12:41:05;97590.72;;;19.58;14.55
77795;BME280;66985;45.778;3.090;2023-03-04T12:43:34;97585.37;;;19.51;14.60
77795;BME280;66985;45.778;3.090;2023-03-04T12:45:56;97579.45;;;19.17;14.86
77795;BME280;66985;45.778;3.090;2023-03-04T12:48:25;97577.68;;;19.56;14.49
77795;BME280;66985;45.778;3.090;2023-03-04T12:50:45;97574.04;;;19.19;14.70